Fort Chipewyan, Canada
Current Conditions -  °F | °C
As of 3:00 PM on Friday 31 Oct 2014 (Local Time) from CYPY Reporting Station
Overcast Overcast  
Wind Chill: 32°   Ceiling: 1900
Heat Index: 37°   Visibility: 9mi
Dew Point: 34°   Wind: 7mph
Humidity: 87%   Direction: 150°SSE
Pressure: 29.6"   Gusts: NA
Location:  58.71°N, 111.15°W
Report Text: CYPY 312100Z AUTO 15006KT 130V190 9SM OVC019 03/01 A2960 RMK PRESFR SLP037
Loading
Personal Weather Stations






























Interactive Weather Map
Tropical Storm Tracking
New forecast layout! Learn more

10-Day Weather Forecast

Advertisements
Track Severe Weather on mobile